Terminal Aerodrome Forecast
Issued by NWS Rapid City, SD

Home | Current Version | Previous Version | Graphics & Text | Print | Product List | Glossary On
Versions: 1 2 3 4 5 6 7 8 9 10 11 12 13 14 15 16 17 18 19 20 21 22 23
000
FTUS43 KUNR 260401 AAB
TAFRAP
TAF AMD
KRAP 260401Z 2604/2624 05006KT P6SM SCT008 OVC010
     FM260500 09007KT 5SM -SHRA BR OVC007
     FM261800 14013KT 6SM -SHRA BR OVC009=

USA.gov is the U.S. government's official web portal to all federal, state and local government web resources and services.